sensor_id;sensor_type;location;lat;lon;timestamp;P1;durP1;ratioP1;P2;durP2;ratioP2
39750;SDS011;37579;51.074;17.004;2023-05-19T00:01:26;3.20;;;0.95;;
39750;SDS011;37579;51.074;17.004;2023-05-19T00:03:53;2.45;;;1.10;;
39750;SDS011;37579;51.074;17.004;2023-05-19T00:06:26;2.67;;;1.33;;
39750;SDS011;37579;51.074;17.004;2023-05-19T00:09:05;1.88;;;0.90;;
39750;SDS011;37579;51.074;17.004;2023-05-19T00:11:32;3.03;;;0.88;;
39750;SDS011;37579;51.074;17.004;2023-05-19T00:14:03;1.50;;;0.80;;
39750;SDS011;37579;51.074;17.004;2023-05-19T00:16:30;2.33;;;0.98;;
39750;SDS011;37579;51.074;17.004;2023-05-19T00:18:57;2.08;;;1.00;;
39750;SDS011;37579;51.074;17.004;2023-05-19T00:21:26;1.52;;;0.75;;
39750;SDS011;37579;51.074;17.004;2023-05-19T00:23:53;1.27;;;0.80;;
39750;SDS011;37579;51.074;17.004;2023-05-19T00:26:19;1.65;;;0.80;;
39750;SDS011;37579;51.074;17.004;2023-05-19T00:28:57;2.25;;;1.05;;
39750;SDS011;37579;51.074;17.004;2023-05-19T00:31:23;1.73;;;0.80;;
39750;SDS011;37579;51.074;17.004;2023-05-19T00:33:49;1.30;;;0.93;;
39750;SDS011;37579;51.074;17.004;2023-05-19T00:36:16;1.98;;;1.02;;
39750;SDS011;37579;51.074;17.004;2023-05-19T00:38:42;1.73;;;1.00;;
39750;SDS011;37579;51.074;17.004;2023-05-19T00:41:07;1.75;;;0.93;;
39750;SDS011;37579;51.074;17.004;2023-05-19T00:43:33;1.48;;;0.70;;
39750;SDS011;37579;51.074;17.004;2023-05-19T00:45:59;1.40;;;0.70;;
39750;SDS011;37579;51.074;17.004;2023-05-19T00:48:25;2.83;;;1.10;;
39750;SDS011;37579;51.074;17.004;2023-05-19T00:50:52;2.38;;;0.82;;
39750;SDS011;37579;51.074;17.004;2023-05-19T00:53:20;2.95;;;0.80;;
39750;SDS011;37579;51.074;17.004;2023-05-19T00:55:47;2.45;;;1.00;;
39750;SDS011;37579;51.074;17.004;2023-05-19T00:58:14;1.50;;;0.80;;
39750;SDS011;37579;51.074;17.004;2023-05-19T01:00:40;1.77;;;1.00;;
39750;SDS011;37579;51.074;17.004;2023-05-19T01:03:07;1.65;;;0.90;;
39750;SDS011;37579;51.074;17.004;2023-05-19T01:05:41;2.60;;;1.00;;
39750;SDS011;37579;51.074;17.004;2023-05-19T01:08:11;1.85;;;1.00;;
39750;SDS011;37579;51.074;17.004;2023-05-19T01:10:37;1.85;;;0.73;;
39750;SDS011;37579;51.074;17.004;2023-05-19T01:13:04;1.77;;;0.82;;
39750;SDS011;37579;51.074;17.004;2023-05-19T01:15:32;1.48;;;0.88;;
39750;SDS011;37579;51.074;17.004;2023-05-19T01:18:07;1.02;;;0.65;;
39750;SDS011;37579;51.074;17.004;2023-05-19T01:20:38;1.15;;;0.75;;
39750;SDS011;37579;51.074;17.004;2023-05-19T01:31:12;1.30;;;0.90;;
39750;SDS011;37579;51.074;17.004;2023-05-19T01:33:40;1.73;;;0.85;;
39750;SDS011;37579;51.074;17.004;2023-05-19T01:36:08;6.75;;;0.80;;
39750;SDS011;37579;51.074;17.004;2023-05-19T01:38:36;2.28;;;0.75;;
39750;SDS011;37579;51.074;17.004;2023-05-19T01:41:03;1.67;;;0.80;;
39750;SDS011;37579;51.074;17.004;2023-05-19T01:43:33;2.40;;;0.90;;
39750;SDS011;37579;51.074;17.004;2023-05-19T01:46:00;1.88;;;1.00;;
39750;SDS011;37579;51.074;17.004;2023-05-19T01:48:27;1.45;;;1.00;;
39750;SDS011;37579;51.074;17.004;2023-05-19T01:50:55;1.27;;;0.80;;
39750;SDS011;37579;51.074;17.004;2023-05-19T01:53:22;1.98;;;0.80;;
39750;SDS011;37579;51.074;17.004;2023-05-19T01:55:49;1.42;;;0.88;;
39750;SDS011;37579;51.074;17.004;2023-05-19T02:14:08;3.75;;;1.15;;
39750;SDS011;37579;51.074;17.004;2023-05-19T02:16:40;2.25;;;0.98;;
39750;SDS011;37579;51.074;17.004;2023-05-19T02:19:30;1.25;;;0.90;;
39750;SDS011;37579;51.074;17.004;2023-05-19T02:21:58;1.40;;;0.95;;
39750;SDS011;37579;51.074;17.004;2023-05-19T02:24:24;0.88;;;0.52;;
39750;SDS011;37579;51.074;17.004;2023-05-19T02:26:50;1.27;;;0.80;;
39750;SDS011;37579;51.074;17.004;2023-05-19T02:29:20;1.98;;;0.90;;
39750;SDS011;37579;51.074;17.004;2023-05-19T02:31:46;2.22;;;0.93;;
39750;SDS011;37579;51.074;17.004;2023-05-19T02:34:12;1.83;;;0.85;;
39750;SDS011;37579;51.074;17.004;2023-05-19T02:36:38;1.33;;;0.60;;
39750;SDS011;37579;51.074;17.004;2023-05-19T02:39:07;1.25;;;0.73;;
39750;SDS011;37579;51.074;17.004;2023-05-19T02:41:35;1.13;;;0.70;;
39750;SDS011;37579;51.074;17.004;2023-05-19T02:44:01;1.55;;;0.80;;
39750;SDS011;37579;51.074;17.004;2023-05-19T02:46:27;1.85;;;1.23;;
39750;SDS011;37579;51.074;17.004;2023-05-19T02:48:53;0.98;;;0.73;;
39750;SDS011;37579;51.074;17.004;2023-05-19T02:51:19;1.13;;;0.60;;
39750;SDS011;37579;51.074;17.004;2023-05-19T02:53:45;1.85;;;1.00;;
39750;SDS011;37579;51.074;17.004;2023-05-19T02:56:11;1.23;;;0.80;;
39750;SDS011;37579;51.074;17.004;2023-05-19T02:58:36;1.30;;;0.85;;
39750;SDS011;37579;51.074;17.004;2023-05-19T03:01:03;1.17;;;0.85;;
39750;SDS011;37579;51.074;17.004;2023-05-19T03:03:29;1.65;;;1.00;;
39750;SDS011;37579;51.074;17.004;2023-05-19T03:05:55;1.63;;;0.73;;
39750;SDS011;37579;51.074;17.004;2023-05-19T03:08:21;1.60;;;0.90;;
39750;SDS011;37579;51.074;17.004;2023-05-19T03:10:47;1.70;;;0.68;;
39750;SDS011;37579;51.074;17.004;2023-05-19T03:13:13;1.67;;;0.65;;
39750;SDS011;37579;51.074;17.004;2023-05-19T03:15:41;0.98;;;0.70;;
39750;SDS011;37579;51.074;17.004;2023-05-19T03:18:07;1.63;;;0.65;;
39750;SDS011;37579;51.074;17.004;2023-05-19T03:20:33;1.10;;;0.70;;
39750;SDS011;37579;51.074;17.004;2023-05-19T03:22:58;1.50;;;0.65;;
39750;SDS011;37579;51.074;17.004;2023-05-19T03:25:25;1.40;;;0.70;;
39750;SDS011;37579;51.074;17.004;2023-05-19T03:27:51;1.75;;;0.75;;
39750;SDS011;37579;51.074;17.004;2023-05-19T03:30:17;1.40;;;0.68;;
39750;SDS011;37579;51.074;17.004;2023-05-19T03:33:02;1.90;;;1.10;;
39750;SDS011;37579;51.074;17.004;2023-05-19T03:35:29;1.52;;;0.65;;
39750;SDS011;37579;51.074;17.004;2023-05-19T03:37:55;1.13;;;0.60;;
39750;SDS011;37579;51.074;17.004;2023-05-19T03:40:21;1.45;;;0.73;;
39750;SDS011;37579;51.074;17.004;2023-05-19T03:42:48;1.67;;;0.70;;
39750;SDS011;37579;51.074;17.004;2023-05-19T03:45:15;0.90;;;0.50;;
39750;SDS011;37579;51.074;17.004;2023-05-19T03:47:43;1.10;;;0.63;;
39750;SDS011;37579;51.074;17.004;2023-05-19T03:50:30;2.15;;;0.90;;
39750;SDS011;37579;51.074;17.004;2023-05-19T03:53:11;1.20;;;0.73;;
39750;SDS011;37579;51.074;17.004;2023-05-19T03:55:39;1.33;;;0.63;;
39750;SDS011;37579;51.074;17.004;2023-05-19T03:58:05;1.38;;;0.90;;
39750;SDS011;37579;51.074;17.004;2023-05-19T04:00:31;1.42;;;1.23;;
39750;SDS011;37579;51.074;17.004;2023-05-19T04:02:56;1.20;;;0.70;;
39750;SDS011;37579;51.074;17.004;2023-05-19T04:05:24;0.88;;;0.57;;
39750;SDS011;37579;51.074;17.004;2023-05-19T04:07:49;1.08;;;0.60;;
39750;SDS011;37579;51.074;17.004;2023-05-19T04:10:15;1.10;;;0.65;;
39750;SDS011;37579;51.074;17.004;2023-05-19T04:12:41;1.45;;;0.60;;
39750;SDS011;37579;51.074;17.004;2023-05-19T04:15:07;1.30;;;0.52;;
39750;SDS011;37579;51.074;17.004;2023-05-19T04:17:35;1.33;;;0.77;;
39750;SDS011;37579;51.074;17.004;2023-05-19T04:20:01;1.20;;;0.70;;
39750;SDS011;37579;51.074;17.004;2023-05-19T04:22:29;0.93;;;0.70;;
39750;SDS011;37579;51.074;17.004;2023-05-19T04:24:54;1.30;;;0.77;;
39750;SDS011;37579;51.074;17.004;2023-05-19T04:27:20;1.73;;;0.70;;
39750;SDS011;37579;51.074;17.004;2023-05-19T04:29:47;1.20;;;0.80;;
39750;SDS011;37579;51.074;17.004;2023-05-19T04:32:14;0.88;;;0.45;;
39750;SDS011;37579;51.074;17.004;2023-05-19T04:34:42;0.85;;;0.45;;
39750;SDS011;37579;51.074;17.004;2023-05-19T04:37:12;1.85;;;0.68;;
39750;SDS011;37579;51.074;17.004;2023-05-19T04:39:43;1.13;;;0.65;;
39750;SDS011;37579;51.074;17.004;2023-05-19T04:42:11;1.55;;;0.90;;
39750;SDS011;37579;51.074;17.004;2023-05-19T04:44:43;1.40;;;0.90;;
39750;SDS011;37579;51.074;17.004;2023-05-19T04:47:09;1.85;;;0.65;;
39750;SDS011;37579;51.074;17.004;2023-05-19T04:49:36;1.63;;;1.00;;
39750;SDS011;37579;51.074;17.004;2023-05-19T04:52:08;1.55;;;0.82;;
39750;SDS011;37579;51.074;17.004;2023-05-19T04:54:36;1.38;;;0.65;;
39750;SDS011;37579;51.074;17.004;2023-05-19T04:57:03;1.13;;;0.70;;
39750;SDS011;37579;51.074;17.004;2023-05-19T04:59:31;1.75;;;0.70;;
39750;SDS011;37579;51.074;17.004;2023-05-19T05:01:58;1.48;;;0.80;;
39750;SDS011;37579;51.074;17.004;2023-05-19T05:04:26;3.10;;;0.75;;
39750;SDS011;37579;51.074;17.004;2023-05-19T05:06:52;1.40;;;0.75;;
39750;SDS011;37579;51.074;17.004;2023-05-19T05:09:19;1.73;;;0.80;;
39750;SDS011;37579;51.074;17.004;2023-05-19T05:11:47;3.50;;;0.77;;
39750;SDS011;37579;51.074;17.004;2023-05-19T05:14:13;0.85;;;0.60;;
39750;SDS011;37579;51.074;17.004;2023-05-19T05:16:40;1.38;;;0.80;;
39750;SDS011;37579;51.074;17.004;2023-05-19T05:19:09;2.38;;;0.77;;
39750;SDS011;37579;51.074;17.004;2023-05-19T05:21:36;1.30;;;0.68;;
39750;SDS011;37579;51.074;17.004;2023-05-19T05:24:02;1.60;;;0.75;;
39750;SDS011;37579;51.074;17.004;2023-05-19T05:26:31;2.47;;;0.82;;
39750;SDS011;37579;51.074;17.004;2023-05-19T05:28:59;1.48;;;0.90;;
39750;SDS011;37579;51.074;17.004;2023-05-19T05:31:25;4.75;;;0.75;;
39750;SDS011;37579;51.074;17.004;2023-05-19T05:33:51;1.45;;;0.82;;
39750;SDS011;37579;51.074;17.004;2023-05-19T05:36:21;1.75;;;0.90;;
39750;SDS011;37579;51.074;17.004;2023-05-19T05:38:47;3.42;;;0.82;;
39750;SDS011;37579;51.074;17.004;2023-05-19T05:41:14;2.47;;;0.80;;
39750;SDS011;37579;51.074;17.004;2023-05-19T05:43:40;2.33;;;0.73;;
39750;SDS011;37579;51.074;17.004;2023-05-19T05:46:06;3.95;;;0.82;;
39750;SDS011;37579;51.074;17.004;2023-05-19T05:48:32;1.98;;;1.05;;
39750;SDS011;37579;51.074;17.004;2023-05-19T05:50:59;1.80;;;0.70;;
39750;SDS011;37579;51.074;17.004;2023-05-19T05:53:29;1.83;;;0.88;;
39750;SDS011;37579;51.074;17.004;2023-05-19T05:55:58;2.60;;;0.90;;
39750;SDS011;37579;51.074;17.004;2023-05-19T05:58:31;2.08;;;0.90;;
39750;SDS011;37579;51.074;17.004;2023-05-19T06:00:59;2.72;;;0.73;;
39750;SDS011;37579;51.074;17.004;2023-05-19T06:03:26;1.67;;;0.88;;
39750;SDS011;37579;51.074;17.004;2023-05-19T06:05:53;4.20;;;1.00;;
39750;SDS011;37579;51.074;17.004;2023-05-19T06:08:19;1.80;;;0.80;;
39750;SDS011;37579;51.074;17.004;2023-05-19T06:10:45;2.03;;;0.77;;
39750;SDS011;37579;51.074;17.004;2023-05-19T06:13:11;1.52;;;0.85;;
39750;SDS011;37579;51.074;17.004;2023-05-19T06:15:39;1.63;;;0.98;;
39750;SDS011;37579;51.074;17.004;2023-05-19T06:18:15;2.35;;;0.90;;
39750;SDS011;37579;51.074;17.004;2023-05-19T06:20:41;1.40;;;0.95;;
39750;SDS011;37579;51.074;17.004;2023-05-19T06:23:07;3.50;;;0.88;;
39750;SDS011;37579;51.074;17.004;2023-05-19T06:25:34;2.50;;;0.90;;
39750;SDS011;37579;51.074;17.004;2023-05-19T06:28:00;1.75;;;0.68;;
39750;SDS011;37579;51.074;17.004;2023-05-19T06:30:27;1.65;;;0.90;;
39750;SDS011;37579;51.074;17.004;2023-05-19T06:33:23;2.58;;;1.10;;
39750;SDS011;37579;51.074;17.004;2023-05-19T06:35:48;3.15;;;1.08;;
39750;SDS011;37579;51.074;17.004;2023-05-19T06:38:15;1.35;;;0.75;;
39750;SDS011;37579;51.074;17.004;2023-05-19T06:40:41;3.65;;;1.00;;
39750;SDS011;37579;51.074;17.004;2023-05-19T06:43:07;1.60;;;0.80;;
39750;SDS011;37579;51.074;17.004;2023-05-19T06:45:51;4.53;;;1.05;;
39750;SDS011;37579;51.074;17.004;2023-05-19T06:48:17;2.38;;;0.93;;
39750;SDS011;37579;51.074;17.004;2023-05-19T06:50:43;4.22;;;0.95;;
39750;SDS011;37579;51.074;17.004;2023-05-19T06:53:08;4.40;;;1.25;;
39750;SDS011;37579;51.074;17.004;2023-05-19T06:55:35;4.22;;;1.15;;
39750;SDS011;37579;51.074;17.004;2023-05-19T06:58:00;4.40;;;0.80;;
39750;SDS011;37579;51.074;17.004;2023-05-19T07:00:26;4.32;;;1.00;;
39750;SDS011;37579;51.074;17.004;2023-05-19T07:02:53;3.20;;;1.17;;
39750;SDS011;37579;51.074;17.004;2023-05-19T07:05:19;3.38;;;1.00;;
39750;SDS011;37579;51.074;17.004;2023-05-19T07:07:49;4.30;;;1.05;;
39750;SDS011;37579;51.074;17.004;2023-05-19T07:10:19;2.05;;;0.85;;
39750;SDS011;37579;51.074;17.004;2023-05-19T07:12:46;2.75;;;0.80;;
39750;SDS011;37579;51.074;17.004;2023-05-19T07:15:14;2.20;;;1.02;;
39750;SDS011;37579;51.074;17.004;2023-05-19T07:17:41;1.35;;;0.95;;
39750;SDS011;37579;51.074;17.004;2023-05-19T07:20:07;2.38;;;1.08;;
39750;SDS011;37579;51.074;17.004;2023-05-19T07:22:36;2.47;;;1.20;;
39750;SDS011;37579;51.074;17.004;2023-05-19T07:25:05;2.63;;;0.88;;
39750;SDS011;37579;51.074;17.004;2023-05-19T07:27:31;1.60;;;0.75;;
39750;SDS011;37579;51.074;17.004;2023-05-19T07:29:57;3.42;;;1.10;;
39750;SDS011;37579;51.074;17.004;2023-05-19T07:32:23;1.58;;;0.93;;
39750;SDS011;37579;51.074;17.004;2023-05-19T07:34:49;1.75;;;0.80;;
39750;SDS011;37579;51.074;17.004;2023-05-19T07:37:15;2.05;;;0.80;;
39750;SDS011;37579;51.074;17.004;2023-05-19T07:39:41;2.35;;;1.10;;
39750;SDS011;37579;51.074;17.004;2023-05-19T07:42:07;3.58;;;1.17;;
39750;SDS011;37579;51.074;17.004;2023-05-19T07:44:33;4.15;;;1.55;;
39750;SDS011;37579;51.074;17.004;2023-05-19T07:46:59;4.40;;;1.33;;
39750;SDS011;37579;51.074;17.004;2023-05-19T07:49:25;4.95;;;1.55;;
39750;SDS011;37579;51.074;17.004;2023-05-19T07:51:51;5.20;;;1.52;;
39750;SDS011;37579;51.074;17.004;2023-05-19T07:54:17;6.97;;;2.13;;
39750;SDS011;37579;51.074;17.004;2023-05-19T07:56:43;2.72;;;1.42;;
39750;SDS011;37579;51.074;17.004;2023-05-19T07:59:09;3.00;;;1.50;;
39750;SDS011;37579;51.074;17.004;2023-05-19T08:01:36;3.03;;;1.38;;
39750;SDS011;37579;51.074;17.004;2023-05-19T08:04:02;4.05;;;1.30;;
39750;SDS011;37579;51.074;17.004;2023-05-19T08:06:28;5.57;;;1.70;;
39750;SDS011;37579;51.074;17.004;2023-05-19T08:08:54;5.43;;;1.65;;
39750;SDS011;37579;51.074;17.004;2023-05-19T08:11:20;4.90;;;1.90;;
39750;SDS011;37579;51.074;17.004;2023-05-19T08:13:46;5.28;;;1.92;;
39750;SDS011;37579;51.074;17.004;2023-05-19T08:16:13;2.72;;;1.83;;
39750;SDS011;37579;51.074;17.004;2023-05-19T08:18:40;4.93;;;1.35;;
39750;SDS011;37579;51.074;17.004;2023-05-19T08:21:06;3.58;;;1.65;;
39750;SDS011;37579;51.074;17.004;2023-05-19T08:23:32;3.42;;;1.65;;
39750;SDS011;37579;51.074;17.004;2023-05-19T08:25:58;3.92;;;1.55;;
39750;SDS011;37579;51.074;17.004;2023-05-19T08:28:24;3.90;;;1.42;;
39750;SDS011;37579;51.074;17.004;2023-05-19T08:30:50;3.75;;;1.55;;
39750;SDS011;37579;51.074;17.004;2023-05-19T08:33:18;4.40;;;1.48;;
39750;SDS011;37579;51.074;17.004;2023-05-19T08:35:47;5.45;;;2.17;;
39750;SDS011;37579;51.074;17.004;2023-05-19T08:38:13;2.92;;;1.27;;
39750;SDS011;37579;51.074;17.004;2023-05-19T08:40:42;5.30;;;1.80;;
39750;SDS011;37579;51.074;17.004;2023-05-19T08:43:11;3.22;;;1.60;;
39750;SDS011;37579;51.074;17.004;2023-05-19T08:45:38;3.33;;;1.60;;
39750;SDS011;37579;51.074;17.004;2023-05-19T08:48:07;7.32;;;1.50;;
39750;SDS011;37579;51.074;17.004;2023-05-19T08:50:34;3.53;;;1.48;;
39750;SDS011;37579;51.074;17.004;2023-05-19T08:53:07;4.93;;;1.30;;
39750;SDS011;37579;51.074;17.004;2023-05-19T08:55:42;3.42;;;1.33;;
39750;SDS011;37579;51.074;17.004;2023-05-19T08:58:12;3.08;;;1.50;;
39750;SDS011;37579;51.074;17.004;2023-05-19T09:00:40;5.15;;;1.60;;
39750;SDS011;37579;51.074;17.004;2023-05-19T09:03:07;3.42;;;1.52;;
39750;SDS011;37579;51.074;17.004;2023-05-19T09:05:33;3.55;;;1.60;;
39750;SDS011;37579;51.074;17.004;2023-05-19T09:07:59;5.40;;;1.70;;
39750;SDS011;37579;51.074;17.004;2023-05-19T09:10:26;4.32;;;1.40;;
39750;SDS011;37579;51.074;17.004;2023-05-19T09:12:52;4.38;;;1.40;;
39750;SDS011;37579;51.074;17.004;2023-05-19T09:15:18;5.47;;;1.52;;
39750;SDS011;37579;51.074;17.004;2023-05-19T09:17:44;3.53;;;2.00;;
39750;SDS011;37579;51.074;17.004;2023-05-19T09:20:12;6.03;;;1.98;;
39750;SDS011;37579;51.074;17.004;2023-05-19T09:22:41;4.50;;;1.75;;
39750;SDS011;37579;51.074;17.004;2023-05-19T09:25:21;3.53;;;1.50;;
39750;SDS011;37579;51.074;17.004;2023-05-19T09:27:48;4.28;;;1.33;;
39750;SDS011;37579;51.074;17.004;2023-05-19T09:30:15;3.90;;;1.38;;
39750;SDS011;37579;51.074;17.004;2023-05-19T09:32:42;3.45;;;1.40;;
39750;SDS011;37579;51.074;17.004;2023-05-19T09:35:08;3.65;;;1.73;;
39750;SDS011;37579;51.074;17.004;2023-05-19T09:37:38;3.28;;;1.58;;
39750;SDS011;37579;51.074;17.004;2023-05-19T09:40:06;4.20;;;1.20;;
39750;SDS011;37579;51.074;17.004;2023-05-19T09:42:38;3.17;;;1.58;;
39750;SDS011;37579;51.074;17.004;2023-05-19T09:45:05;3.47;;;1.70;;
39750;SDS011;37579;51.074;17.004;2023-05-19T09:47:36;3.42;;;1.33;;
39750;SDS011;37579;51.074;17.004;2023-05-19T09:50:04;7.55;;;1.52;;
39750;SDS011;37579;51.074;17.004;2023-05-19T09:52:35;2.10;;;1.30;;
39750;SDS011;37579;51.074;17.004;2023-05-19T09:55:01;5.38;;;1.30;;
39750;SDS011;37579;51.074;17.004;2023-05-19T09:57:32;3.95;;;1.40;;
39750;SDS011;37579;51.074;17.004;2023-05-19T10:00:02;4.67;;;1.40;;
39750;SDS011;37579;51.074;17.004;2023-05-19T10:02:41;5.13;;;1.80;;
39750;SDS011;37579;51.074;17.004;2023-05-19T10:05:12;3.08;;;1.58;;
39750;SDS011;37579;51.074;17.004;2023-05-19T10:07:43;4.38;;;1.80;;
39750;SDS011;37579;51.074;17.004;2023-05-19T10:10:12;5.70;;;1.88;;
39750;SDS011;37579;51.074;17.004;2023-05-19T10:12:40;5.30;;;1.90;;
39750;SDS011;37579;51.074;17.004;2023-05-19T10:15:10;3.80;;;2.38;;
39750;SDS011;37579;51.074;17.004;2023-05-19T10:17:38;3.92;;;1.77;;
39750;SDS011;37579;51.074;17.004;2023-05-19T10:20:09;5.90;;;2.33;;
39750;SDS011;37579;51.074;17.004;2023-05-19T10:22:37;3.40;;;1.90;;
39750;SDS011;37579;51.074;17.004;2023-05-19T10:25:03;3.58;;;1.92;;
39750;SDS011;37579;51.074;17.004;2023-05-19T10:27:31;6.18;;;2.03;;
39750;SDS011;37579;51.074;17.004;2023-05-19T10:30:07;6.80;;;2.38;;
39750;SDS011;37579;51.074;17.004;2023-05-19T10:32:41;4.40;;;1.73;;
39750;SDS011;37579;51.074;17.004;2023-05-19T10:40:38;5.95;;;2.60;;
39750;SDS011;37579;51.074;17.004;2023-05-19T10:43:24;5.93;;;2.58;;
39750;SDS011;37579;51.074;17.004;2023-05-19T10:45:56;4.57;;;2.40;;
39750;SDS011;37579;51.074;17.004;2023-05-19T10:48:22;5.40;;;1.92;;
39750;SDS011;37579;51.074;17.004;2023-05-19T10:50:51;3.17;;;1.92;;
39750;SDS011;37579;51.074;17.004;2023-05-19T10:53:19;5.18;;;2.40;;
39750;SDS011;37579;51.074;17.004;2023-05-19T10:55:51;6.32;;;2.50;;
39750;SDS011;37579;51.074;17.004;2023-05-19T11:01:07;4.97;;;2.38;;
39750;SDS011;37579;51.074;17.004;2023-05-19T11:06:34;4.20;;;2.17;;
39750;SDS011;37579;51.074;17.004;2023-05-19T11:09:08;6.60;;;2.33;;
39750;SDS011;37579;51.074;17.004;2023-05-19T11:14:14;5.93;;;2.63;;
39750;SDS011;37579;51.074;17.004;2023-05-19T11:16:47;3.92;;;2.10;;
39750;SDS011;37579;51.074;17.004;2023-05-19T11:19:27;5.55;;;2.50;;
39750;SDS011;37579;51.074;17.004;2023-05-19T11:21:55;5.20;;;1.98;;
39750;SDS011;37579;51.074;17.004;2023-05-19T11:32:32;5.53;;;2.10;;
39750;SDS011;37579;51.074;17.004;2023-05-19T11:34:59;6.25;;;2.05;;
39750;SDS011;37579;51.074;17.004;2023-05-19T11:37:25;3.55;;;1.88;;
39750;SDS011;37579;51.074;17.004;2023-05-19T11:39:54;3.65;;;2.00;;
39750;SDS011;37579;51.074;17.004;2023-05-19T11:42:20;3.22;;;1.80;;
39750;SDS011;37579;51.074;17.004;2023-05-19T11:44:47;5.57;;;2.17;;
39750;SDS011;37579;51.074;17.004;2023-05-19T11:47:13;3.88;;;1.95;;
39750;SDS011;37579;51.074;17.004;2023-05-19T11:49:43;6.10;;;2.67;;
39750;SDS011;37579;51.074;17.004;2023-05-19T11:52:11;4.07;;;2.30;;
39750;SDS011;37579;51.074;17.004;2023-05-19T11:54:37;3.92;;;2.42;;
39750;SDS011;37579;51.074;17.004;2023-05-19T11:57:06;4.85;;;2.20;;
39750;SDS011;37579;51.074;17.004;2023-05-19T11:59:35;12.95;;;2.20;;
39750;SDS011;37579;51.074;17.004;2023-05-19T12:02:02;6.10;;;2.78;;
39750;SDS011;37579;51.074;17.004;2023-05-19T12:04:48;5.00;;;2.95;;
39750;SDS011;37579;51.074;17.004;2023-05-19T12:07:15;5.05;;;3.03;;
39750;SDS011;37579;51.074;17.004;2023-05-19T12:09:45;4.35;;;2.28;;
39750;SDS011;37579;51.074;17.004;2023-05-19T12:12:12;4.60;;;2.65;;
39750;SDS011;37579;51.074;17.004;2023-05-19T12:14:41;4.60;;;2.65;;
39750;SDS011;37579;51.074;17.004;2023-05-19T12:17:11;4.38;;;2.30;;
39750;SDS011;37579;51.074;17.004;2023-05-19T12:19:38;4.53;;;2.45;;
39750;SDS011;37579;51.074;17.004;2023-05-19T12:22:07;4.93;;;2.45;;
39750;SDS011;37579;51.074;17.004;2023-05-19T12:24:34;4.57;;;2.13;;
39750;SDS011;37579;51.074;17.004;2023-05-19T12:27:05;5.20;;;2.47;;
39750;SDS011;37579;51.074;17.004;2023-05-19T12:29:34;3.33;;;2.05;;
39750;SDS011;37579;51.074;17.004;2023-05-19T12:32:00;3.75;;;2.00;;
39750;SDS011;37579;51.074;17.004;2023-05-19T12:34:27;5.00;;;1.77;;
39750;SDS011;37579;51.074;17.004;2023-05-19T12:36:52;3.50;;;1.92;;
39750;SDS011;37579;51.074;17.004;2023-05-19T12:39:18;5.22;;;2.00;;
39750;SDS011;37579;51.074;17.004;2023-05-19T12:41:44;2.70;;;1.70;;
39750;SDS011;37579;51.074;17.004;2023-05-19T12:44:14;5.20;;;2.15;;
39750;SDS011;37579;51.074;17.004;2023-05-19T12:46:40;3.53;;;2.03;;
39750;SDS011;37579;51.074;17.004;2023-05-19T12:49:07;3.45;;;1.80;;
39750;SDS011;37579;51.074;17.004;2023-05-19T12:51:34;4.95;;;1.50;;
39750;SDS011;37579;51.074;17.004;2023-05-19T12:54:01;4.00;;;2.25;;
39750;SDS011;37579;51.074;17.004;2023-05-19T12:56:28;4.30;;;1.48;;
39750;SDS011;37579;51.074;17.004;2023-05-19T12:58:54;2.90;;;1.67;;
39750;SDS011;37579;51.074;17.004;2023-05-19T13:01:21;4.05;;;1.73;;
39750;SDS011;37579;51.074;17.004;2023-05-19T13:03:47;3.72;;;1.83;;
39750;SDS011;37579;51.074;17.004;2023-05-19T13:06:13;4.13;;;2.08;;
39750;SDS011;37579;51.074;17.004;2023-05-19T13:08:40;3.38;;;2.05;;
39750;SDS011;37579;51.074;17.004;2023-05-19T13:11:05;4.13;;;2.10;;
39750;SDS011;37579;51.074;17.004;2023-05-19T13:13:31;5.20;;;2.13;;
39750;SDS011;37579;51.074;17.004;2023-05-19T13:15:57;3.30;;;1.67;;
39750;SDS011;37579;51.074;17.004;2023-05-19T13:18:23;2.90;;;1.75;;
39750;SDS011;37579;51.074;17.004;2023-05-19T13:20:51;3.10;;;1.80;;
39750;SDS011;37579;51.074;17.004;2023-05-19T13:23:18;2.80;;;1.60;;
39750;SDS011;37579;51.074;17.004;2023-05-19T13:25:44;5.28;;;1.98;;
39750;SDS011;37579;51.074;17.004;2023-05-19T13:28:10;3.15;;;1.73;;
39750;SDS011;37579;51.074;17.004;2023-05-19T13:30:37;7.03;;;2.28;;
39750;SDS011;37579;51.074;17.004;2023-05-19T13:33:04;12.57;;;3.13;;
39750;SDS011;37579;51.074;17.004;2023-05-19T13:35:30;12.02;;;3.17;;
39750;SDS011;37579;51.074;17.004;2023-05-19T13:38:02;10.63;;;3.63;;
39750;SDS011;37579;51.074;17.004;2023-05-19T13:40:29;11.32;;;3.22;;
39750;SDS011;37579;51.074;17.004;2023-05-19T13:42:57;17.30;;;4.13;;
39750;SDS011;37579;51.074;17.004;2023-05-19T13:45:23;16.83;;;4.97;;
39750;SDS011;37579;51.074;17.004;2023-05-19T13:47:49;20.15;;;5.13;;
39750;SDS011;37579;51.074;17.004;2023-05-19T13:50:15;15.57;;;5.15;;
39750;SDS011;37579;51.074;17.004;2023-05-19T13:52:41;15.20;;;5.00;;
39750;SDS011;37579;51.074;17.004;2023-05-19T13:55:07;14.00;;;4.75;;
39750;SDS011;37579;51.074;17.004;2023-05-19T13:57:33;19.80;;;5.68;;
39750;SDS011;37579;51.074;17.004;2023-05-19T13:59:59;14.05;;;4.65;;
39750;SDS011;37579;51.074;17.004;2023-05-19T14:02:25;19.23;;;5.15;;
39750;SDS011;37579;51.074;17.004;2023-05-19T14:04:51;19.20;;;4.22;;
39750;SDS011;37579;51.074;17.004;2023-05-19T14:07:16;16.25;;;5.15;;
39750;SDS011;37579;51.074;17.004;2023-05-19T14:09:43;12.13;;;5.03;;
39750;SDS011;37579;51.074;17.004;2023-05-19T14:12:10;14.73;;;4.57;;
39750;SDS011;37579;51.074;17.004;2023-05-19T14:14:36;14.43;;;4.85;;
39750;SDS011;37579;51.074;17.004;2023-05-19T14:17:02;15.98;;;4.93;;
39750;SDS011;37579;51.074;17.004;2023-05-19T14:19:28;13.63;;;5.03;;
39750;SDS011;37579;51.074;17.004;2023-05-19T14:21:55;12.13;;;4.38;;
39750;SDS011;37579;51.074;17.004;2023-05-19T14:24:21;14.10;;;5.05;;
39750;SDS011;37579;51.074;17.004;2023-05-19T14:26:47;12.07;;;4.65;;
39750;SDS011;37579;51.074;17.004;2023-05-19T14:29:13;13.60;;;4.65;;
39750;SDS011;37579;51.074;17.004;2023-05-19T14:31:39;12.10;;;4.07;;
39750;SDS011;37579;51.074;17.004;2023-05-19T14:34:05;11.63;;;4.07;;
39750;SDS011;37579;51.074;17.004;2023-05-19T14:36:31;12.13;;;4.20;;
39750;SDS011;37579;51.074;17.004;2023-05-19T14:38:59;10.23;;;3.95;;
39750;SDS011;37579;51.074;17.004;2023-05-19T14:41:25;11.25;;;4.65;;
39750;SDS011;37579;51.074;17.004;2023-05-19T14:43:51;12.48;;;3.80;;
39750;SDS011;37579;51.074;17.004;2023-05-19T14:46:17;10.73;;;3.90;;
39750;SDS011;37579;51.074;17.004;2023-05-19T14:48:43;11.13;;;3.47;;
39750;SDS011;37579;51.074;17.004;2023-05-19T14:51:08;10.05;;;4.28;;
39750;SDS011;37579;51.074;17.004;2023-05-19T14:53:34;11.15;;;4.10;;
39750;SDS011;37579;51.074;17.004;2023-05-19T14:56:00;12.23;;;4.20;;
39750;SDS011;37579;51.074;17.004;2023-05-19T14:58:26;9.85;;;3.88;;
39750;SDS011;37579;51.074;17.004;2023-05-19T15:00:51;10.10;;;3.97;;
39750;SDS011;37579;51.074;17.004;2023-05-19T15:03:17;10.68;;;4.10;;
39750;SDS011;37579;51.074;17.004;2023-05-19T15:05:43;13.25;;;4.80;;
39750;SDS011;37579;51.074;17.004;2023-05-19T15:08:09;11.07;;;4.38;;
39750;SDS011;37579;51.074;17.004;2023-05-19T15:10:35;9.93;;;4.10;;
39750;SDS011;37579;51.074;17.004;2023-05-19T15:13:01;11.48;;;3.92;;
39750;SDS011;37579;51.074;17.004;2023-05-19T15:15:28;9.18;;;4.30;;
39750;SDS011;37579;51.074;17.004;2023-05-19T15:17:54;10.43;;;3.85;;
39750;SDS011;37579;51.074;17.004;2023-05-19T15:20:20;9.98;;;4.30;;
39750;SDS011;37579;51.074;17.004;2023-05-19T15:22:46;10.30;;;3.90;;